Time;durP1;ratioP1;P1;durP2;ratioP2;P2;SDS_P1;SDS_P2;PMS_P1;PMS_P2;Temp;Humidity;BMP_temperature;BMP_pressure;BME280_temperature;BME280_humidity;BME280_pressure;Samples;Min_cycle;Max_cycle;Signal;HPM_P1;HPM_P2
2023/07/26 00:00:31;;;;;;;;;4.75;3.50;;;;;;;;5117700;27;45369;-42
2023/07/26 00:02:56;;;;;;;;;4.75;4.75;;;;;;;;5117728;27;45317;-43
2023/07/26 00:05:22;;;;;;;;;4.25;3.75;;;;;;;;5118124;27;45444;-41
2023/07/26 00:07:47;;;;;;;;;5.00;5.00;;;;;;;;5117497;27;46146;-41
2023/07/26 00:10:12;;;;;;;;;7.67;3.67;;;;;;;;5117753;27;45512;-42
2023/07/26 00:12:37;;;;;;;;;3.33;3.33;;;;;;;;5119924;27;45427;-42
2023/07/26 00:15:03;;;;;;;;;4.00;3.67;;;;;;;;5121279;27;45302;-42
2023/07/26 00:17:28;;;;;;;;;7.67;4.00;;;;;;;;5121101;27;45942;-42
2023/07/26 00:19:53;;;;;;;;;7.33;5.00;;;;;;;;5121110;27;45280;-43
2023/07/26 00:22:18;;;;;;;;;4.00;3.33;;;;;;;;5121186;27;45365;-41
2023/07/26 00:24:43;;;;;;;;;3.00;3.00;;;;;;;;5121344;27;45298;-42
2023/07/26 00:27:08;;;;;;;;;4.33;3.00;;;;;;;;5120993;27;45427;-42
2023/07/26 00:29:34;;;;;;;;;4.00;4.00;;;;;;;;5120901;27;45313;-41
2023/07/26 00:31:59;;;;;;;;;5.00;5.00;;;;;;;;5120890;27;45173;-41
2023/07/26 00:34:24;;;;;;;;;5.00;4.00;;;;;;;;5121292;27;45200;-41
2023/07/26 00:36:49;;;;;;;;;6.67;5.67;;;;;;;;5120702;27;45269;-41
2023/07/26 00:39:16;;;;;;;;;5.67;4.00;;;;;;;;5120724;27;45311;-42
2023/07/26 00:41:41;;;;;;;;;6.00;3.00;;;;;;;;5120927;27;45325;-42
2023/07/26 00:44:06;;;;;;;;;5.33;4.33;;;;;;;;5121026;27;45344;-42
2023/07/26 00:46:32;;;;;;;;;3.00;3.00;;;;;;;;5120681;27;46115;-41
2023/07/26 00:48:58;;;;;;;;;3.00;3.00;;;;;;;;5120632;27;45307;-42
2023/07/26 00:51:23;;;;;;;;;4.25;3.00;;;;;;;;5120663;27;45377;-42
2023/07/26 00:53:49;;;;;;;;;3.00;3.00;;;;;;;;5121109;27;45532;-42
2023/07/26 00:56:15;;;;;;;;;4.67;4.67;;;;;;;;5120322;27;46188;-41
2023/07/26 00:58:40;;;;;;;;;7.00;5.00;;;;;;;;5120446;27;45294;-42
2023/07/26 01:01:06;;;;;;;;;14.00;11.00;;;;;;;;5120325;27;45375;-42
2023/07/26 01:03:31;;;;;;;;;5.67;5.67;;;;;;;;5120726;27;45376;-42
2023/07/26 01:06:15;;;;;;;;;4.67;4.33;;;;;;;;5120482;27;45354;-44
2023/07/26 01:08:54;;;;;;;;;4.00;4.00;;;;;;;;5120048;27;45312;-42
2023/07/26 01:11:54;;;;;;;;;3.75;2.50;;;;;;;;5101749;27;45242;-43
2023/07/26 01:14:31;;;;;;;;;3.00;3.00;;;;;;;;5016180;28;45345;-49
2023/07/26 01:16:58;;;;;;;;;2.00;2.00;;;;;;;;5016408;28;46491;-44
2023/07/26 01:19:23;;;;;;;;;3.25;2.75;;;;;;;;5016314;28;45325;-43
2023/07/26 01:21:48;;;;;;;;;4.75;2.00;;;;;;;;5016706;28;45423;-42
2023/07/26 01:24:13;;;;;;;;;4.00;2.25;;;;;;;;5016428;28;45324;-42
2023/07/26 01:26:38;;;;;;;;;2.75;2.75;;;;;;;;5016512;28;46350;-41
2023/07/26 01:29:04;;;;;;;;;4.00;3.00;;;;;;;;5016381;28;45568;-40
2023/07/26 01:31:29;;;;;;;;;3.00;3.00;;;;;;;;5016000;28;45392;-41
2023/07/26 01:33:55;;;;;;;;;4.67;3.67;;;;;;;;5016382;28;45505;-42
2023/07/26 01:36:22;;;;;;;;;3.00;3.00;;;;;;;;5015992;28;46173;-43
2023/07/26 01:38:47;;;;;;;;;3.00;3.00;;;;;;;;5015872;28;45442;-42
2023/07/26 01:41:13;;;;;;;;;4.00;4.00;;;;;;;;5016461;28;45484;-42
2023/07/26 01:43:39;;;;;;;;;3.33;3.33;;;;;;;;5016640;28;45524;-41
2023/07/26 01:46:04;;;;;;;;;5.33;5.00;;;;;;;;5016188;28;45426;-41
2023/07/26 01:48:29;;;;;;;;;2.33;2.00;;;;;;;;5075717;27;45600;-42
2023/07/26 01:50:54;;;;;;;;;5.00;4.00;;;;;;;;5119226;27;45472;-42
2023/07/26 01:53:19;;;;;;;;;3.33;2.67;;;;;;;;5119278;27;45461;-42
2023/07/26 01:55:45;;;;;;;;;3.33;3.33;;;;;;;;5119483;27;45331;-42
2023/07/26 01:58:10;;;;;;;;;3.67;3.67;;;;;;;;5100986;27;45402;-40
2023/07/26 02:00:35;;;;;;;;;3.67;2.67;;;;;;;;5119603;27;45301;-41
2023/07/26 02:03:00;;;;;;;;;5.67;3.00;;;;;;;;5119924;27;45397;-41
2023/07/26 02:05:26;;;;;;;;;2.33;2.33;;;;;;;;5119227;27;46262;-42
2023/07/26 02:07:51;;;;;;;;;4.00;4.00;;;;;;;;5119590;27;45312;-41
2023/07/26 02:10:17;;;;;;;;;4.33;4.00;;;;;;;;5119577;27;45349;-43
2023/07/26 02:12:42;;;;;;;;;6.00;2.67;;;;;;;;5119543;27;45330;-42
2023/07/26 02:15:07;;;;;;;;;4.00;3.00;;;;;;;;5119380;27;47239;-43
2023/07/26 02:17:32;;;;;;;;;2.33;2.33;;;;;;;;5119252;27;45393;-42
2023/07/26 02:19:57;;;;;;;;;1.00;1.00;;;;;;;;5119524;27;45339;-42
2023/07/26 02:22:23;;;;;;;;;2.67;2.00;;;;;;;;5119556;27;45547;-43
2023/07/26 02:24:48;;;;;;;;;2.67;2.67;;;;;;;;5119088;27;46402;-42
2023/07/26 02:27:13;;;;;;;;;3.00;3.00;;;;;;;;5119112;27;45305;-43
2023/07/26 02:29:38;;;;;;;;;5.33;5.00;;;;;;;;5119184;27;45589;-42
2023/07/26 02:32:04;;;;;;;;;4.00;4.00;;;;;;;;5119218;27;45236;-42
2023/07/26 02:34:29;;;;;;;;;5.33;4.00;;;;;;;;5118138;27;45656;-43
2023/07/26 02:36:54;;;;;;;;;2.33;2.33;;;;;;;;5119019;27;45351;-42
2023/07/26 02:39:19;;;;;;;;;2.33;2.33;;;;;;;;5118792;27;45276;-42
2023/07/26 02:41:45;;;;;;;;;2.00;2.00;;;;;;;;5119202;27;45412;-41
2023/07/26 02:44:10;;;;;;;;;3.33;3.33;;;;;;;;5118671;27;46105;-42
2023/07/26 02:46:35;;;;;;;;;4.00;3.00;;;;;;;;5118814;27;45210;-43
2023/07/26 02:49:01;;;;;;;;;4.33;3.00;;;;;;;;5118849;27;45357;-41
2023/07/26 02:51:26;;;;;;;;;4.67;4.00;;;;;;;;5119032;27;45259;-42
2023/07/26 02:53:51;;;;;;;;;3.67;3.67;;;;;;;;5118526;27;46324;-42
2023/07/26 02:56:16;;;;;;;;;2.00;2.00;;;;;;;;5118573;27;45210;-43
2023/07/26 02:58:41;;;;;;;;;4.00;4.00;;;;;;;;5100028;27;45523;-42
2023/07/26 03:01:07;;;;;;;;;2.33;2.33;;;;;;;;5118806;27;45360;-42
2023/07/26 03:03:32;;;;;;;;;3.00;3.00;;;;;;;;5118529;27;46456;-42
2023/07/26 03:05:57;;;;;;;;;4.00;3.00;;;;;;;;5118040;27;45291;-41
2023/07/26 03:08:22;;;;;;;;;2.33;2.00;;;;;;;;5118660;27;45375;-41
2023/07/26 03:10:50;;;;;;;;;2.00;2.00;;;;;;;;5118816;27;45176;-42
2023/07/26 03:13:15;;;;;;;;;4.00;2.00;;;;;;;;5118031;27;47000;-42
2023/07/26 03:15:40;;;;;;;;;6.00;4.33;;;;;;;;5118306;27;45402;-43
2023/07/26 03:18:05;;;;;;;;;3.67;3.00;;;;;;;;5099990;27;45350;-42
2023/07/26 03:20:31;;;;;;;;;2.00;2.00;;;;;;;;5118697;27;45344;-42
2023/07/26 03:22:56;;;;;;;;;4.67;3.00;;;;;;;;5118270;27;45600;-42
2023/07/26 03:25:21;;;;;;;;;3.00;3.00;;;;;;;;5118232;27;45397;-42
2023/07/26 03:27:47;;;;;;;;;5.00;3.67;;;;;;;;5118507;27;45415;-42
2023/07/26 03:30:12;;;;;;;;;4.33;4.00;;;;;;;;5118260;27;45356;-43
2023/07/26 03:32:37;;;;;;;;;4.00;4.00;;;;;;;;5118025;27;46579;-42
2023/07/26 03:35:02;;;;;;;;;4.00;2.33;;;;;;;;5117932;27;45407;-42
2023/07/26 03:37:27;;;;;;;;;5.33;3.00;;;;;;;;5118202;27;45397;-43
2023/07/26 03:39:53;;;;;;;;;3.00;3.00;;;;;;;;5118330;27;45432;-41
2023/07/26 03:42:18;;;;;;;;;4.00;4.00;;;;;;;;5117870;27;46280;-43
2023/07/26 03:44:43;;;;;;;;;3.00;3.00;;;;;;;;5117835;27;45473;-43
2023/07/26 03:47:08;;;;;;;;;5.33;3.00;;;;;;;;5121061;27;45413;-42
2023/07/26 03:49:33;;;;;;;;;4.67;3.67;;;;;;;;5121913;27;45332;-42
2023/07/26 03:51:59;;;;;;;;;3.00;3.00;;;;;;;;5121505;27;45884;-42
2023/07/26 03:54:24;;;;;;;;;6.67;3.67;;;;;;;;5121461;27;45303;-41
2023/07/26 03:56:49;;;;;;;;;7.67;5.33;;;;;;;;5121715;27;45469;-42
2023/07/26 03:59:14;;;;;;;;;3.67;3.00;;;;;;;;5121441;27;45428;-42
2023/07/26 04:01:39;;;;;;;;;5.00;5.00;;;;;;;;5121362;27;45380;-42
2023/07/26 04:04:05;;;;;;;;;4.33;4.00;;;;;;;;5121292;27;45437;-41
2023/07/26 04:06:30;;;;;;;;;7.33;4.00;;;;;;;;5102771;27;45315;-41
2023/07/26 04:08:55;;;;;;;;;4.33;3.67;;;;;;;;5121537;27;45314;-43
2023/07/26 04:11:20;;;;;;;;;6.67;4.00;;;;;;;;5121181;27;45523;-42
2023/07/26 04:13:46;;;;;;;;;6.00;4.00;;;;;;;;5121214;27;45386;-43
2023/07/26 04:16:15;;;;;;;;;4.00;4.00;;;;;;;;5121177;27;45252;-42
2023/07/26 04:18:41;;;;;;;;;7.00;5.00;;;;;;;;5121321;27;45420;-43
2023/07/26 04:21:08;;;;;;;;;4.67;4.67;;;;;;;;5120981;27;45978;-43
2023/07/26 04:23:33;;;;;;;;;8.33;6.00;;;;;;;;5120993;27;45318;-42
2023/07/26 04:25:58;;;;;;;;;8.33;6.00;;;;;;;;5121148;27;45367;-43
2023/07/26 04:28:24;;;;;;;;;9.00;6.33;;;;;;;;5121105;27;45269;-42
2023/07/26 04:30:49;;;;;;;;;7.33;6.00;;;;;;;;5120905;27;45503;-41
2023/07/26 04:33:14;;;;;;;;;6.33;5.33;;;;;;;;5119727;27;45369;-42
2023/07/26 04:35:39;;;;;;;;;6.67;5.33;;;;;;;;5120987;27;45206;-43
2023/07/26 04:38:05;;;;;;;;;11.00;7.00;;;;;;;;5121305;27;45400;-43
2023/07/26 04:40:30;;;;;;;;;5.00;5.00;;;;;;;;5120654;27;46405;-42
2023/07/26 04:42:55;;;;;;;;;7.00;6.00;;;;;;;;5120508;27;45319;-42
2023/07/26 04:45:20;;;;;;;;;5.33;5.33;;;;;;;;5120823;27;45357;-42
2023/07/26 04:47:45;;;;;;;;;6.67;6.00;;;;;;;;5121073;27;45380;-42
2023/07/26 04:50:11;;;;;;;;;6.00;4.00;;;;;;;;5120597;27;45497;-43
2023/07/26 04:52:37;;;;;;;;;7.00;5.33;;;;;;;;5120597;27;45163;-43
2023/07/26 04:55:03;;;;;;;;;4.33;4.33;;;;;;;;5120539;27;45381;-42
2023/07/26 04:57:29;;;;;;;;;6.00;5.00;;;;;;;;5120129;27;45303;-42
2023/07/26 04:59:54;;;;;;;;;8.00;5.33;;;;;;;;5120225;27;46184;-42
2023/07/26 05:02:19;;;;;;;;;9.67;6.67;;;;;;;;5120510;27;45234;-41
2023/07/26 05:04:44;;;;;;;;;7.67;6.00;;;;;;;;5120364;27;45424;-42
2023/07/26 05:07:09;;;;;;;;;6.00;6.00;;;;;;;;5120593;27;45302;-43
2023/07/26 05:09:35;;;;;;;;;10.33;5.00;;;;;;;;5120570;27;46186;-43
2023/07/26 05:12:00;;;;;;;;;9.00;6.00;;;;;;;;5120201;27;45281;-42
2023/07/26 05:14:25;;;;;;;;;11.00;6.00;;;;;;;;5119776;27;45298;-42
2023/07/26 05:16:50;;;;;;;;;6.00;4.33;;;;;;;;5120318;27;45472;-42
2023/07/26 05:19:15;;;;;;;;;5.00;5.00;;;;;;;;5120245;27;45502;-43
2023/07/26 05:21:41;;;;;;;;;6.33;6.33;;;;;;;;5120070;27;45440;-42
2023/07/26 05:24:06;;;;;;;;;7.00;7.00;;;;;;;;5120103;27;45375;-42
2023/07/26 05:26:31;;;;;;;;;5.33;5.33;;;;;;;;5120305;27;45456;-41
2023/07/26 05:28:56;;;;;;;;;5.00;5.00;;;;;;;;5119850;27;46008;-43
2023/07/26 05:31:22;;;;;;;;;8.33;6.00;;;;;;;;5120194;27;45452;-41
2023/07/26 05:33:47;;;;;;;;;5.00;5.00;;;;;;;;5119782;27;45479;-42
2023/07/26 05:36:12;;;;;;;;;5.67;5.67;;;;;;;;5120052;27;45462;-42
2023/07/26 05:38:37;;;;;;;;;6.33;5.33;;;;;;;;5120018;27;45420;-42
2023/07/26 05:41:05;;;;;;;;;10.00;5.67;;;;;;;;5119787;27;45395;-43
2023/07/26 05:43:30;;;;;;;;;6.67;5.00;;;;;;;;5120013;27;45363;-46
2023/07/26 05:45:56;;;;;;;;;5.67;5.67;;;;;;;;5119845;27;45136;-41
2023/07/26 05:48:21;;;;;;;;;5.00;5.00;;;;;;;;5119467;27;46395;-41
2023/07/26 05:50:47;;;;;;;;;7.00;5.00;;;;;;;;5119622;27;45352;-42
2023/07/26 05:53:13;;;;;;;;;10.00;4.33;;;;;;;;5119664;27;45354;-41
2023/07/26 05:55:38;;;;;;;;;10.33;6.00;;;;;;;;5119779;27;45297;-43
2023/07/26 05:58:03;;;;;;;;;9.00;6.00;;;;;;;;5119625;27;46152;-42
2023/07/26 06:00:28;;;;;;;;;4.00;4.00;;;;;;;;5119395;27;45413;-42
2023/07/26 06:02:53;;;;;;;;;9.67;7.33;;;;;;;;5119576;27;45186;-42
2023/07/26 06:05:19;;;;;;;;;8.00;6.00;;;;;;;;5119669;27;45233;-41
2023/07/26 06:07:45;;;;;;;;;7.00;6.00;;;;;;;;5119231;27;46348;-43
2023/07/26 06:10:10;;;;;;;;;9.33;7.67;;;;;;;;5118061;27;45268;-42
2023/07/26 06:12:35;;;;;;;;;6.67;6.00;;;;;;;;5118929;27;45373;-42
2023/07/26 06:15:00;;;;;;;;;6.67;6.00;;;;;;;;5119496;27;45411;-41
2023/07/26 06:17:25;;;;;;;;;5.00;5.00;;;;;;;;5119099;27;45338;-42
2023/07/26 06:19:51;;;;;;;;;6.67;6.00;;;;;;;;5119222;27;45404;-42
2023/07/26 06:22:16;;;;;;;;;9.00;5.00;;;;;;;;5119138;27;45295;-42
2023/07/26 06:24:41;;;;;;;;;7.33;4.00;;;;;;;;5118801;27;45248;-43
2023/07/26 06:27:06;;;;;;;;;6.00;6.00;;;;;;;;5119028;27;47266;-42
2023/07/26 06:29:33;;;;;;;;;6.67;5.00;;;;;;;;5119005;27;45357;-41
2023/07/26 06:31:58;;;;;;;;;7.67;6.67;;;;;;;;5118880;27;45267;-42
2023/07/26 06:34:23;;;;;;;;;7.00;6.00;;;;;;;;5119065;27;45384;-42
2023/07/26 06:36:48;;;;;;;;;5.33;5.33;;;;;;;;5118456;27;47022;-42
2023/07/26 06:39:14;;;;;;;;;7.67;5.00;;;;;;;;5118772;27;45351;-42
2023/07/26 06:41:39;;;;;;;;;11.33;5.33;;;;;;;;5118945;27;45523;-42
2023/07/26 06:44:04;;;;;;;;;7.33;6.00;;;;;;;;5119076;27;45282;-42
2023/07/26 06:46:29;;;;;;;;;9.00;5.67;;;;;;;;5118456;27;45399;-42
2023/07/26 06:48:55;;;;;;;;;8.00;6.00;;;;;;;;5118766;27;45554;-42
2023/07/26 06:51:20;;;;;;;;;9.00;6.33;;;;;;;;5118966;27;45366;-41
2023/07/26 06:53:45;;;;;;;;;8.33;6.00;;;;;;;;5119011;27;45302;-42
2023/07/26 06:56:10;;;;;;;;;9.33;6.00;;;;;;;;5118634;27;47023;-43
2023/07/26 06:58:35;;;;;;;;;8.67;7.00;;;;;;;;5118831;27;45429;-43
2023/07/26 07:01:01;;;;;;;;;7.00;7.00;;;;;;;;5118800;27;45368;-43
2023/07/26 07:03:27;;;;;;;;;8.00;5.33;;;;;;;;5118277;27;45417;-42
2023/07/26 07:05:52;;;;;;;;;10.33;5.33;;;;;;;;5118474;27;46237;-43
2023/07/26 07:08:17;;;;;;;;;8.00;6.25;;;;;;;;5118528;27;45248;-43
2023/07/26 07:10:43;;;;;;;;;8.25;5.00;;;;;;;;5118535;27;45402;-43
2023/07/26 07:13:08;;;;;;;;;8.50;7.00;;;;;;;;5118601;27;45205;-43
2023/07/26 07:15:33;;;;;;;;;7.00;7.00;;;;;;;;5117660;27;45217;-43
2023/07/26 07:17:58;;;;;;;;;8.50;6.00;;;;;;;;5118166;27;45206;-42
2023/07/26 07:20:24;;;;;;;;;6.00;5.75;;;;;;;;5117966;27;45617;-44
2023/07/26 07:22:52;;;;;;;;;8.00;8.00;;;;;;;;5118477;27;45456;-43
2023/07/26 07:25:17;;;;;;;;;8.60;7.60;;;;;;;;5118212;27;45365;-43
2023/07/26 07:27:43;;;;;;;;;4.25;4.25;;;;;;;;5118148;27;45421;-42
2023/07/26 07:30:10;;;;;;;;;5.50;5.50;;;;;;;;5118057;27;45313;-41
2023/07/26 07:32:35;;;;;;;;;8.20;5.20;;;;;;;;5118036;27;45255;-42
2023/07/26 07:35:00;;;;;;;;;4.50;4.00;;;;;;;;5117934;27;45360;-42
2023/07/26 07:37:26;;;;;;;;;11.00;5.00;;;;;;;;5117925;27;45266;-43
2023/07/26 07:39:51;;;;;;;;;8.50;5.75;;;;;;;;5117457;27;45361;-43
2023/07/26 07:42:16;;;;;;;;;6.50;4.50;;;;;;;;5118270;27;45272;-42
2023/07/26 07:44:41;;;;;;;;;5.25;4.25;;;;;;;;5117962;27;46177;-41
2023/07/26 07:47:07;;;;;;;;;6.25;4.75;;;;;;;;5117987;27;45313;-42
2023/07/26 07:49:32;;;;;;;;;6.25;5.25;;;;;;;;5118075;27;45358;-42
2023/07/26 07:51:57;;;;;;;;;7.25;5.25;;;;;;;;5118393;27;45376;-41
2023/07/26 07:54:22;;;;;;;;;7.00;6.75;;;;;;;;5117738;27;46084;-43
2023/07/26 07:56:47;;;;;;;;;5.50;5.50;;;;;;;;5117619;27;45449;-43
2023/07/26 07:59:13;;;;;;;;;4.50;4.00;;;;;;;;5117925;27;45290;-43
2023/07/26 08:01:38;;;;;;;;;3.50;3.50;;;;;;;;5117330;27;45372;-42
2023/07/26 08:04:03;;;;;;;;;5.50;5.00;;;;;;;;5117765;27;46216;-43
2023/07/26 08:06:29;;;;;;;;;5.75;3.25;;;;;;;;5117637;27;45299;-42
2023/07/26 08:08:54;;;;;;;;;1.50;1.50;;;;;;;;5117810;27;45395;-43
2023/07/26 08:11:19;;;;;;;;;4.75;4.75;;;;;;;;5117986;27;45255;-42
2023/07/26 08:13:44;;;;;;;;;4.00;3.25;;;;;;;;5117563;27;46163;-42
2023/07/26 08:16:10;;;;;;;;;4.25;4.25;;;;;;;;5117289;27;45320;-43
2023/07/26 08:18:36;;;;;;;;;3.50;3.25;;;;;;;;5117620;27;45355;-42
2023/07/26 08:21:02;;;;;;;;;3.20;3.20;;;;;;;;5118294;27;45414;-45
2023/07/26 08:23:27;;;;;;;;;5.00;2.80;;;;;;;;5117573;27;47022;-43
2023/07/26 08:25:52;;;;;;;;;4.25;2.25;;;;;;;;5117624;27;45397;-44
2023/07/26 08:28:18;;;;;;;;;4.00;4.00;;;;;;;;5117497;27;45350;-44
2023/07/26 08:30:43;;;;;;;;;3.25;2.50;;;;;;;;5117676;27;45347;-43
2023/07/26 08:33:08;;;;;;;;;2.50;2.50;;;;;;;;5088792;27;48114;-43
2023/07/26 08:35:33;;;;;;;;;2.25;2.25;;;;;;;;5100236;27;45334;-42
2023/07/26 08:37:58;;;;;;;;;2.25;2.25;;;;;;;;5100490;27;45208;-42
2023/07/26 08:40:24;;;;;;;;;3.25;3.25;;;;;;;;5100482;27;45420;-44
2023/07/26 08:42:49;;;;;;;;;5.00;5.00;;;;;;;;5081952;27;46875;-43
2023/07/26 08:45:15;;;;;;;;;5.00;3.25;;;;;;;;5100227;27;45322;-42
2023/07/26 08:47:41;;;;;;;;;3.60;3.60;;;;;;;;5100389;27;45249;-43
2023/07/26 08:50:07;;;;;;;;;4.00;4.00;;;;;;;;5100672;27;45508;-42
2023/07/26 08:52:32;;;;;;;;;3.50;2.25;;;;;;;;5100052;27;47011;-43
2023/07/26 08:54:58;;;;;;;;;2.50;2.50;;;;;;;;5100248;27;45313;-44
2023/07/26 08:57:24;;;;;;;;;3.00;2.60;;;;;;;;5100388;27;45241;-43
2023/07/26 08:59:49;;;;;;;;;3.00;3.00;;;;;;;;5100477;27;45308;-42
2023/07/26 09:02:15;;;;;;;;;2.75;2.00;;;;;;;;5099893;27;45213;-42
2023/07/26 09:04:40;;;;;;;;;1.80;1.80;;;;;;;;5099870;27;45282;-43
2023/07/26 09:07:06;;;;;;;;;1.75;1.75;;;;;;;;5100002;27;45299;-42
2023/07/26 09:09:35;;;;;;;;;2.00;2.00;;;;;;;;5097137;27;45646;-44
2023/07/26 09:12:01;;;;;;;;;0.80;0.80;;;;;;;;5099617;27;47188;-42
2023/07/26 09:14:27;;;;;;;;;2.00;2.00;;;;;;;;5100052;27;45342;-43
2023/07/26 09:16:58;;;;;;;;;4.40;2.20;;;;;;;;5099712;27;45315;-44
2023/07/26 09:19:31;;;;;;;;;2.40;1.20;;;;;;;;5099985;27;45342;-44
2023/07/26 09:22:00;;;;;;;;;5.00;2.00;;;;;;;;5098136;27;47493;-43
2023/07/26 09:24:33;;;;;;;;;1.00;1.00;;;;;;;;5099627;27;45434;-43
2023/07/26 09:27:04;;;;;;;;;2.40;0.60;;;;;;;;5099836;27;45454;-44
2023/07/26 09:29:30;;;;;;;;;2.60;1.20;;;;;;;;5100044;27;45461;-43
2023/07/26 09:31:55;;;;;;;;;2.50;2.25;;;;;;;;5100489;27;45430;-43
2023/07/26 09:34:20;;;;;;;;;2.25;0.50;;;;;;;;5120185;27;45462;-44
2023/07/26 09:36:50;;;;;;;;;1.00;1.00;;;;;;;;5120184;27;45357;-42
2023/07/26 09:39:17;;;;;;;;;3.80;1.40;;;;;;;;5120388;27;45534;-43
2023/07/26 09:41:42;;;;;;;;;2.60;0.80;;;;;;;;5119969;27;46963;-42
2023/07/26 09:44:15;;;;;;;;;2.75;1.00;;;;;;;;5120018;27;45252;-44
2023/07/26 09:46:50;;;;;;;;;2.60;1.00;;;;;;;;5119726;27;45388;-43
2023/07/26 09:49:16;;;;;;;;;2.80;2.00;;;;;;;;5120076;27;45356;-43
2023/07/26 09:51:42;;;;;;;;;2.60;1.00;;;;;;;;5119549;27;45205;-44
2023/07/26 09:54:08;;;;;;;;;2.50;1.50;;;;;;;;5119675;27;45393;-43
2023/07/26 09:56:35;;;;;;;;;1.80;1.80;;;;;;;;5119605;27;45556;-42
2023/07/26 09:59:00;;;;;;;;;1.00;1.00;;;;;;;;5119976;27;45353;-42
2023/07/26 10:01:27;;;;;;;;;2.25;1.50;;;;;;;;5119199;27;46201;-44
2023/07/26 10:03:54;;;;;;;;;1.00;1.00;;;;;;;;5119634;27;45350;-43
2023/07/26 10:06:20;;;;;;;;;1.80;1.80;;;;;;;;5119653;27;45251;-42
2023/07/26 10:08:48;;;;;;;;;1.00;1.00;;;;;;;;5119654;27;45472;-43
2023/07/26 10:11:14;;;;;;;;;2.40;1.40;;;;;;;;5119250;27;46117;-44
2023/07/26 10:13:41;;;;;;;;;0.50;0.00;;;;;;;;5119258;27;45386;-43
2023/07/26 10:16:07;;;;;;;;;0.20;0.20;;;;;;;;5119142;27;45461;-43
2023/07/26 10:18:33;;;;;;;;;1.40;0.60;;;;;;;;5119581;27;45321;-43
2023/07/26 10:21:00;;;;;;;;;1.00;1.00;;;;;;;;5118931;27;45936;-43
2023/07/26 10:23:25;;;;;;;;;0.40;0.40;;;;;;;;5100590;27;45376;-43
2023/07/26 10:25:51;;;;;;;;;0.75;0.75;;;;;;;;5119202;27;45317;-43
2023/07/26 10:28:17;;;;;;;;;2.75;1.25;;;;;;;;5119240;27;45362;-42
2023/07/26 10:30:42;;;;;;;;;4.00;1.20;;;;;;;;5118737;27;47190;-42
2023/07/26 10:33:14;;;;;;;;;1.00;1.00;;;;;;;;5118719;27;45314;-43
2023/07/26 10:35:41;;;;;;;;;2.40;0.80;;;;;;;;5119011;27;45388;-43
2023/07/26 10:38:07;;;;;;;;;1.40;0.80;;;;;;;;5118542;27;45272;-43
2023/07/26 10:40:33;;;;;;;;;1.50;1.50;;;;;;;;5118842;27;45447;-43
2023/07/26 10:42:59;;;;;;;;;0.80;0.80;;;;;;;;5118943;27;45253;-43
2023/07/26 10:45:37;;;;;;;;;3.00;2.00;;;;;;;;5118711;27;45218;-43
2023/07/26 10:48:03;;;;;;;;;1.20;0.00;;;;;;;;5119044;27;45518;-51
2023/07/26 10:50:28;;;;;;;;;2.00;1.75;;;;;;;;5118669;27;45998;-43
2023/07/26 10:52:53;;;;;;;;;1.00;1.00;;;;;;;;5118842;27;45421;-43
2023/07/26 10:55:26;;;;;;;;;0.50;0.50;;;;;;;;5117744;27;45337;-41
2023/07/26 10:57:51;;;;;;;;;0.00;0.00;;;;;;;;5118825;27;45386;-44
2023/07/26 11:00:22;;;;;;;;;0.00;0.00;;;;;;;;5118285;27;45708;-43
2023/07/26 11:02:59;;;;;;;;;1.20;1.00;;;;;;;;5118434;27;45381;-45
2023/07/26 11:05:26;;;;;;;;;3.40;0.80;;;;;;;;5118701;27;45507;-43
2023/07/26 11:07:52;;;;;;;;;0.80;0.80;;;;;;;;5118686;27;45350;-43
2023/07/26 11:10:21;;;;;;;;;3.00;2.00;;;;;;;;5118348;27;46048;-43
2023/07/26 11:12:51;;;;;;;;;3.00;2.00;;;;;;;;5118315;27;45199;-44
2023/07/26 11:15:29;;;;;;;;;0.80;0.80;;;;;;;;5118516;27;45433;-43
2023/07/26 11:17:55;;;;;;;;;0.40;0.40;;;;;;;;5118460;27;45455;-43
2023/07/26 11:20:20;;;;;;;;;2.00;1.00;;;;;;;;5118271;27;46601;-43
2023/07/26 11:22:46;;;;;;;;;3.00;1.00;;;;;;;;5118409;27;45272;-42
2023/07/26 11:25:11;;;;;;;;;1.00;1.00;;;;;;;;5118644;27;45248;-44
2023/07/26 11:27:37;;;;;;;;;3.00;2.00;;;;;;;;5118604;27;45499;-43
2023/07/26 11:30:02;;;;;;;;;1.75;0.50;;;;;;;;5118086;27;45535;-43
2023/07/26 11:32:28;;;;;;;;;1.75;1.75;;;;;;;;5118121;27;45491;-42
2023/07/26 11:34:57;;;;;;;;;1.00;0.00;;;;;;;;5117725;27;45410;-43
2023/07/26 11:37:22;;;;;;;;;1.20;1.20;;;;;;;;5118423;27;45346;-45
2023/07/26 11:39:47;;;;;;;;;1.75;0.75;;;;;;;;5118239;27;46252;-43
2023/07/26 11:42:16;;;;;;;;;0.00;0.00;;;;;;;;5118131;27;45418;-43
2023/07/26 11:44:41;;;;;;;;;0.60;0.60;;;;;;;;5118414;27;45415;-43
2023/07/26 11:47:07;;;;;;;;;1.00;1.00;;;;;;;;5118350;27;45307;-43
2023/07/26 11:49:32;;;;;;;;;0.25;0.25;;;;;;;;5118017;27;46030;-42
2023/07/26 11:51:57;;;;;;;;;3.00;1.00;;;;;;;;5118186;27;45311;-43
2023/07/26 11:54:23;;;;;;;;;1.75;1.00;;;;;;;;5118253;27;45347;-44
2023/07/26 11:56:48;;;;;;;;;2.00;2.00;;;;;;;;5118247;27;45376;-43
2023/07/26 11:59:16;;;;;;;;;0.75;0.75;;;;;;;;5117828;27;46937;-43
2023/07/26 12:01:41;;;;;;;;;1.80;1.80;;;;;;;;5117365;27;45404;-43
2023/07/26 12:04:10;;;;;;;;;1.75;1.75;;;;;;;;5118163;27;45435;-43
2023/07/26 12:06:36;;;;;;;;;5.00;3.00;;;;;;;;5118022;27;45427;-42
2023/07/26 12:09:11;;;;;;;;;2.00;2.00;;;;;;;;5120432;27;46288;-42
2023/07/26 12:11:40;;;;;;;;;1.40;1.00;;;;;;;;5121265;27;45381;-42
2023/07/26 12:14:05;;;;;;;;;2.00;2.00;;;;;;;;5121254;27;45520;-42
2023/07/26 12:16:31;;;;;;;;;2.00;1.00;;;;;;;;5121459;27;45325;-44
2023/07/26 12:18:58;;;;;;;;;2.00;2.00;;;;;;;;5121143;27;46359;-44
2023/07/26 12:21:24;;;;;;;;;1.00;1.00;;;;;;;;5121204;27;45353;-43
2023/07/26 12:23:49;;;;;;;;;4.00;2.60;;;;;;;;5121562;27;45295;-43
2023/07/26 12:26:15;;;;;;;;;2.00;2.00;;;;;;;;5121942;27;45418;-45
2023/07/26 12:28:40;;;;;;;;;1.25;1.00;;;;;;;;5121762;27;46111;-43
2023/07/26 12:31:05;;;;;;;;;3.75;3.50;;;;;;;;5121407;27;45289;-42
2023/07/26 12:33:30;;;;;;;;;3.00;2.75;;;;;;;;5120794;27;45337;-43
2023/07/26 12:35:56;;;;;;;;;2.75;1.00;;;;;;;;5121251;27;45371;-43
2023/07/26 12:38:22;;;;;;;;;1.25;1.25;;;;;;;;5120685;27;47314;-43
2023/07/26 12:40:48;;;;;;;;;2.00;2.00;;;;;;;;5120865;27;45438;-44
2023/07/26 12:43:29;;;;;;;;;3.50;2.00;;;;;;;;5121114;27;45328;-43
2023/07/26 12:46:02;;;;;;;;;1.40;1.40;;;;;;;;5121218;27;45298;-41
2023/07/26 12:48:29;;;;;;;;;2.00;1.60;;;;;;;;5119784;27;45477;-44
2023/07/26 12:50:54;;;;;;;;;5.00;2.20;;;;;;;;5120774;27;45399;-43
2023/07/26 12:53:20;;;;;;;;;1.50;1.50;;;;;;;;5120848;27;45294;-44
2023/07/26 12:55:46;;;;;;;;;1.75;1.00;;;;;;;;5120891;27;45376;-44
2023/07/26 12:58:11;;;;;;;;;2.00;1.25;;;;;;;;5120469;27;46958;-43
2023/07/26 13:00:37;;;;;;;;;7.00;5.25;;;;;;;;5120180;27;45309;-43
2023/07/26 13:03:03;;;;;;;;;3.00;2.25;;;;;;;;5120958;27;45273;-42
2023/07/26 13:05:28;;;;;;;;;2.00;2.00;;;;;;;;5120768;27;45401;-44
2023/07/26 13:07:53;;;;;;;;;1.50;1.50;;;;;;;;5120474;27;46496;-44
2023/07/26 13:10:19;;;;;;;;;2.75;2.75;;;;;;;;5120440;27;45586;-43
2023/07/26 13:12:44;;;;;;;;;2.80;2.60;;;;;;;;5120508;27;45302;-43
2023/07/26 13:15:10;;;;;;;;;2.00;1.75;;;;;;;;5120782;27;45214;-44
2023/07/26 13:17:35;;;;;;;;;2.50;1.75;;;;;;;;5120044;27;45429;-43
2023/07/26 13:20:02;;;;;;;;;2.00;1.75;;;;;;;;5119825;27;45314;-44
2023/07/26 13:22:27;;;;;;;;;1.00;1.00;;;;;;;;5120533;27;45395;-42
2023/07/26 13:24:52;;;;;;;;;2.50;2.50;;;;;;;;5120581;27;45432;-42
2023/07/26 13:27:18;;;;;;;;;2.50;2.50;;;;;;;;5120215;27;46028;-42
2023/07/26 13:29:43;;;;;;;;;2.75;2.00;;;;;;;;5120158;27;45315;-43
2023/07/26 13:32:08;;;;;;;;;2.25;2.00;;;;;;;;5119964;27;45552;-43
2023/07/26 13:34:34;;;;;;;;;2.75;2.75;;;;;;;;5120344;27;45406;-42
2023/07/26 13:36:59;;;;;;;;;4.25;3.00;;;;;;;;5119904;27;47159;-42
2023/07/26 13:39:25;;;;;;;;;1.50;1.50;;;;;;;;5120142;27;45255;-45
2023/07/26 13:41:50;;;;;;;;;2.80;1.60;;;;;;;;5120343;27;45306;-42
2023/07/26 13:44:15;;;;;;;;;2.00;2.00;;;;;;;;5120559;27;45325;-41
2023/07/26 13:46:41;;;;;;;;;4.75;3.25;;;;;;;;5119847;27;46528;-44
2023/07/26 13:49:06;;;;;;;;;2.00;1.50;;;;;;;;5119888;27;45273;-43
2023/07/26 13:51:32;;;;;;;;;1.50;1.50;;;;;;;;5120254;27;45401;-43
2023/07/26 13:53:57;;;;;;;;;2.00;2.00;;;;;;;;5120161;27;45371;-43
2023/07/26 13:56:22;;;;;;;;;3.00;1.00;;;;;;;;5119616;27;45213;-43
2023/07/26 13:58:47;;;;;;;;;2.00;2.00;;;;;;;;5119925;27;45424;-43
2023/07/26 14:01:13;;;;;;;;;2.75;2.75;;;;;;;;5120028;27;45353;-41
2023/07/26 14:03:38;;;;;;;;;3.50;1.50;;;;;;;;5119950;27;45444;-43
2023/07/26 14:06:03;;;;;;;;;2.00;1.75;;;;;;;;5119486;27;45407;-43
2023/07/26 14:08:28;;;;;;;;;1.75;1.75;;;;;;;;5119709;27;45361;-42
2023/07/26 14:10:53;;;;;;;;;1.00;1.00;;;;;;;;5119699;27;45142;-43
2023/07/26 14:13:19;;;;;;;;;0.50;0.50;;;;;;;;5119781;27;45571;-43
2023/07/26 14:15:44;;;;;;;;;2.00;2.00;;;;;;;;5119400;27;46058;-44
2023/07/26 14:18:09;;;;;;;;;2.00;2.00;;;;;;;;5119442;27;45243;-42
2023/07/26 14:20:36;;;;;;;;;2.75;1.75;;;;;;;;5119695;27;45180;-43
2023/07/26 14:23:01;;;;;;;;;3.20;1.80;;;;;;;;5119655;27;45330;-45
2023/07/26 14:25:26;;;;;;;;;2.75;2.00;;;;;;;;5119611;27;45366;-44
2023/07/26 14:27:52;;;;;;;;;3.00;3.00;;;;;;;;5119766;27;45531;-47
2023/07/26 14:30:17;;;;;;;;;2.50;1.50;;;;;;;;5118657;27;45293;-43
2023/07/26 14:32:43;;;;;;;;;1.00;1.00;;;;;;;;5119656;27;45318;-43
2023/07/26 14:35:08;;;;;;;;;1.50;1.50;;;;;;;;5119031;27;45500;-44